Seattle, Washington
Traffic Map
Current Weather Conditions
Seattle, Washington
Overcast
Overcast
70°
Feels Like: 70°
Wind Chill: 70° Ceiling: 2200
Heat Index: 70° Visibility: 10mi
Dew Point: 52° Wind: 8mph
Humidity: 53% Direction: 120° (ESE)
Pressure: 30.08in Gusts: 0mph
Raw Report DataKBFI 281553Z 12007KT 10SM BKN022 OVC200 21/11 A3008 RMK AO2 SLP184 T02110111 $
Traffic Incident Summary
Active as of:
Severity:
Category:
InformationThere was an issue retrieving the traffic information for this location. Please try a different location or try again shortly.
Advertisements
Track Severe Weather on mobile